sensor_id;sensor_type;location;lat;lon;timestamp;P1;P2;P0
72023;PMS5003;59889;50.700;5.440;2022-12-20T00:02:22;15;14;
72023;PMS5003;59889;50.700;5.440;2022-12-20T00:04:47;15;14;
72023;PMS5003;59889;50.700;5.440;2022-12-20T00:07:12;15;15;
72023;PMS5003;59889;50.700;5.440;2022-12-20T00:09:37;15;14;
72023;PMS5003;59889;50.700;5.440;2022-12-20T00:12:02;15;14;
72023;PMS5003;59889;50.700;5.440;2022-12-20T00:14:28;13;13;
72023;PMS5003;59889;50.700;5.440;2022-12-20T00:16:53;14;14;
72023;PMS5003;59889;50.700;5.440;2022-12-20T00:19:18;15;15;
72023;PMS5003;59889;50.700;5.440;2022-12-20T00:21:43;14;13;
72023;PMS5003;59889;50.700;5.440;2022-12-20T00:24:09;14;13;
72023;PMS5003;59889;50.700;5.440;2022-12-20T00:26:34;15;14;
72023;PMS5003;59889;50.700;5.440;2022-12-20T00:28:59;14;13;
72023;PMS5003;59889;50.700;5.440;2022-12-20T00:31:24;16;14;
72023;PMS5003;59889;50.700;5.440;2022-12-20T00:33:50;13;13;
72023;PMS5003;59889;50.700;5.440;2022-12-20T00:36:14;13;13;
72023;PMS5003;59889;50.700;5.440;2022-12-20T00:38:39;11;11;
72023;PMS5003;59889;50.700;5.440;2022-12-20T00:41:05;11;11;
72023;PMS5003;59889;50.700;5.440;2022-12-20T00:43:30;13;12;
72023;PMS5003;59889;50.700;5.440;2022-12-20T00:45:55;12;12;
72023;PMS5003;59889;50.700;5.440;2022-12-20T00:48:20;14;14;
72023;PMS5003;59889;50.700;5.440;2022-12-20T00:50:45;14;13;
72023;PMS5003;59889;50.700;5.440;2022-12-20T00:53:11;14;13;
72023;PMS5003;59889;50.700;5.440;2022-12-20T00:55:39;14;13;
72023;PMS5003;59889;50.700;5.440;2022-12-20T00:58:01;14;14;
72023;PMS5003;59889;50.700;5.440;2022-12-20T01:00:26;13;12;
72023;PMS5003;59889;50.700;5.440;2022-12-20T01:02:52;15;15;
72023;PMS5003;59889;50.700;5.440;2022-12-20T01:05:17;14;13;
72023;PMS5003;59889;50.700;5.440;2022-12-20T01:07:43;15;15;
72023;PMS5003;59889;50.700;5.440;2022-12-20T01:10:08;11;11;
72023;PMS5003;59889;50.700;5.440;2022-12-20T01:12:33;12;12;
72023;PMS5003;59889;50.700;5.440;2022-12-20T01:14:58;13;13;
72023;PMS5003;59889;50.700;5.440;2022-12-20T01:17:23;14;13;
72023;PMS5003;59889;50.700;5.440;2022-12-20T01:19:48;13;13;
72023;PMS5003;59889;50.700;5.440;2022-12-20T01:22:13;14;14;
72023;PMS5003;59889;50.700;5.440;2022-12-20T01:24:38;12;12;
72023;PMS5003;59889;50.700;5.440;2022-12-20T01:27:04;14;13;
72023;PMS5003;59889;50.700;5.440;2022-12-20T01:29:29;16;15;
72023;PMS5003;59889;50.700;5.440;2022-12-20T01:31:54;16;15;
72023;PMS5003;59889;50.700;5.440;2022-12-20T01:34:19;14;14;
72023;PMS5003;59889;50.700;5.440;2022-12-20T01:36:45;14;13;
72023;PMS5003;59889;50.700;5.440;2022-12-20T01:39:11;13;13;
72023;PMS5003;59889;50.700;5.440;2022-12-20T01:41:35;13;12;
72023;PMS5003;59889;50.700;5.440;2022-12-20T01:44:01;13;12;
72023;PMS5003;59889;50.700;5.440;2022-12-20T01:46:26;13;13;
72023;PMS5003;59889;50.700;5.440;2022-12-20T01:48:51;13;12;
72023;PMS5003;59889;50.700;5.440;2022-12-20T01:51:16;12;12;
72023;PMS5003;59889;50.700;5.440;2022-12-20T01:53:42;13;12;
72023;PMS5003;59889;50.700;5.440;2022-12-20T01:56:06;12;11;
72023;PMS5003;59889;50.700;5.440;2022-12-20T01:58:31;14;14;
72023;PMS5003;59889;50.700;5.440;2022-12-20T02:00:56;11;11;
72023;PMS5003;59889;50.700;5.440;2022-12-20T02:03:21;12;10;
72023;PMS5003;59889;50.700;5.440;2022-12-20T02:05:47;14;14;
72023;PMS5003;59889;50.700;5.440;2022-12-20T02:08:12;12;12;
72023;PMS5003;59889;50.700;5.440;2022-12-20T02:10:41;13;13;
72023;PMS5003;59889;50.700;5.440;2022-12-20T02:13:04;15;14;
72023;PMS5003;59889;50.700;5.440;2022-12-20T02:15:32;12;12;
72023;PMS5003;59889;50.700;5.440;2022-12-20T02:17:55;14;14;
72023;PMS5003;59889;50.700;5.440;2022-12-20T02:22:45;13;12;
72023;PMS5003;59889;50.700;5.440;2022-12-20T02:25:13;13;13;
72023;PMS5003;59889;50.700;5.440;2022-12-20T02:30:04;16;16;
72023;PMS5003;59889;50.700;5.440;2022-12-20T02:32:25;13;11;
72023;PMS5003;59889;50.700;5.440;2022-12-20T02:34:49;11;11;
72023;PMS5003;59889;50.700;5.440;2022-12-20T02:37:14;10;10;
72023;PMS5003;59889;50.700;5.440;2022-12-20T02:39:39;12;12;
72023;PMS5003;59889;50.700;5.440;2022-12-20T02:42:05;12;11;
72023;PMS5003;59889;50.700;5.440;2022-12-20T02:44:29;12;12;
72023;PMS5003;59889;50.700;5.440;2022-12-20T02:46:54;12;12;
72023;PMS5003;59889;50.700;5.440;2022-12-20T02:49:20;13;13;
72023;PMS5003;59889;50.700;5.440;2022-12-20T02:51:46;11;11;
72023;PMS5003;59889;50.700;5.440;2022-12-20T02:54:10;13;11;
72023;PMS5003;59889;50.700;5.440;2022-12-20T02:56:36;11;10;
72023;PMS5003;59889;50.700;5.440;2022-12-20T02:59:01;14;12;
72023;PMS5003;59889;50.700;5.440;2022-12-20T03:01:26;12;12;
72023;PMS5003;59889;50.700;5.440;2022-12-20T03:03:51;12;10;
72023;PMS5003;59889;50.700;5.440;2022-12-20T03:06:16;13;13;
72023;PMS5003;59889;50.700;5.440;2022-12-20T03:08:41;13;13;
72023;PMS5003;59889;50.700;5.440;2022-12-20T03:11:06;10;10;
72023;PMS5003;59889;50.700;5.440;2022-12-20T03:13:31;13;11;
72023;PMS5003;59889;50.700;5.440;2022-12-20T03:15:56;13;12;
72023;PMS5003;59889;50.700;5.440;2022-12-20T03:18:22;9;9;
72023;PMS5003;59889;50.700;5.440;2022-12-20T03:20:47;10;10;
72023;PMS5003;59889;50.700;5.440;2022-12-20T03:23:12;13;12;
72023;PMS5003;59889;50.700;5.440;2022-12-20T03:25:37;13;12;
72023;PMS5003;59889;50.700;5.440;2022-12-20T03:28:03;13;12;
72023;PMS5003;59889;50.700;5.440;2022-12-20T03:30:28;11;10;
72023;PMS5003;59889;50.700;5.440;2022-12-20T03:32:53;11;10;
72023;PMS5003;59889;50.700;5.440;2022-12-20T03:35:18;11;11;
72023;PMS5003;59889;50.700;5.440;2022-12-20T03:37:43;13;12;
72023;PMS5003;59889;50.700;5.440;2022-12-20T03:40:09;10;10;
72023;PMS5003;59889;50.700;5.440;2022-12-20T03:42:34;11;11;
72023;PMS5003;59889;50.700;5.440;2022-12-20T03:44:59;10;10;
72023;PMS5003;59889;50.700;5.440;2022-12-20T03:47:24;13;12;
72023;PMS5003;59889;50.700;5.440;2022-12-20T03:49:50;13;13;
72023;PMS5003;59889;50.700;5.440;2022-12-20T03:52:14;11;11;
72023;PMS5003;59889;50.700;5.440;2022-12-20T03:54:40;12;10;
72023;PMS5003;59889;50.700;5.440;2022-12-20T03:57:05;11;9;
72023;PMS5003;59889;50.700;5.440;2022-12-20T03:59:30;11;11;
72023;PMS5003;59889;50.700;5.440;2022-12-20T04:01:55;11;10;
72023;PMS5003;59889;50.700;5.440;2022-12-20T04:04:20;10;10;
72023;PMS5003;59889;50.700;5.440;2022-12-20T04:06:45;9;9;
72023;PMS5003;59889;50.700;5.440;2022-12-20T04:09:10;9;9;
72023;PMS5003;59889;50.700;5.440;2022-12-20T04:11:36;11;10;
72023;PMS5003;59889;50.700;5.440;2022-12-20T04:14:02;10;9;
72023;PMS5003;59889;50.700;5.440;2022-12-20T04:16:27;11;11;
72023;PMS5003;59889;50.700;5.440;2022-12-20T04:18:52;10;10;
72023;PMS5003;59889;50.700;5.440;2022-12-20T04:21:21;11;10;
72023;PMS5003;59889;50.700;5.440;2022-12-20T04:23:42;8;8;
72023;PMS5003;59889;50.700;5.440;2022-12-20T04:26:08;9;9;
72023;PMS5003;59889;50.700;5.440;2022-12-20T04:28:33;10;9;
72023;PMS5003;59889;50.700;5.440;2022-12-20T04:30:58;9;9;
72023;PMS5003;59889;50.700;5.440;2022-12-20T04:33:23;9;9;
72023;PMS5003;59889;50.700;5.440;2022-12-20T04:35:48;10;10;
72023;PMS5003;59889;50.700;5.440;2022-12-20T04:38:13;10;10;
72023;PMS5003;59889;50.700;5.440;2022-12-20T04:40:38;9;9;
72023;PMS5003;59889;50.700;5.440;2022-12-20T04:43:03;11;11;
72023;PMS5003;59889;50.700;5.440;2022-12-20T04:45:28;11;10;
72023;PMS5003;59889;50.700;5.440;2022-12-20T04:47:53;10;10;
72023;PMS5003;59889;50.700;5.440;2022-12-20T04:50:19;11;11;
72023;PMS5003;59889;50.700;5.440;2022-12-20T04:52:44;13;12;
72023;PMS5003;59889;50.700;5.440;2022-12-20T04:55:09;11;11;
72023;PMS5003;59889;50.700;5.440;2022-12-20T04:57:34;10;10;
72023;PMS5003;59889;50.700;5.440;2022-12-20T04:59:59;10;10;
72023;PMS5003;59889;50.700;5.440;2022-12-20T05:02:24;11;11;
72023;PMS5003;59889;50.700;5.440;2022-12-20T05:04:49;12;10;
72023;PMS5003;59889;50.700;5.440;2022-12-20T05:07:14;11;11;
72023;PMS5003;59889;50.700;5.440;2022-12-20T05:09:40;14;14;
72023;PMS5003;59889;50.700;5.440;2022-12-20T05:12:05;11;11;
72023;PMS5003;59889;50.700;5.440;2022-12-20T05:14:30;11;10;
72023;PMS5003;59889;50.700;5.440;2022-12-20T05:16:55;11;11;
72023;PMS5003;59889;50.700;5.440;2022-12-20T05:19:20;15;13;
72023;PMS5003;59889;50.700;5.440;2022-12-20T05:21:45;12;11;
72023;PMS5003;59889;50.700;5.440;2022-12-20T05:24:10;12;12;
72023;PMS5003;59889;50.700;5.440;2022-12-20T05:26:36;11;11;
72023;PMS5003;59889;50.700;5.440;2022-12-20T05:29:01;11;11;
72023;PMS5003;59889;50.700;5.440;2022-12-20T05:31:26;11;11;
72023;PMS5003;59889;50.700;5.440;2022-12-20T05:33:51;10;10;
72023;PMS5003;59889;50.700;5.440;2022-12-20T05:36:16;13;10;
72023;PMS5003;59889;50.700;5.440;2022-12-20T05:38:42;10;10;
72023;PMS5003;59889;50.700;5.440;2022-12-20T05:41:07;11;11;
72023;PMS5003;59889;50.700;5.440;2022-12-20T05:43:32;13;11;
72023;PMS5003;59889;50.700;5.440;2022-12-20T05:45:57;12;11;
72023;PMS5003;59889;50.700;5.440;2022-12-20T05:48:22;12;12;
72023;PMS5003;59889;50.700;5.440;2022-12-20T05:50:47;13;11;
72023;PMS5003;59889;50.700;5.440;2022-12-20T05:53:14;13;12;
72023;PMS5003;59889;50.700;5.440;2022-12-20T05:55:41;13;13;
72023;PMS5003;59889;50.700;5.440;2022-12-20T05:58:03;12;12;
72023;PMS5003;59889;50.700;5.440;2022-12-20T06:00:28;13;12;
72023;PMS5003;59889;50.700;5.440;2022-12-20T06:02:54;13;12;
72023;PMS5003;59889;50.700;5.440;2022-12-20T06:05:19;11;11;
72023;PMS5003;59889;50.700;5.440;2022-12-20T06:07:44;12;11;
72023;PMS5003;59889;50.700;5.440;2022-12-20T06:10:09;13;12;
72023;PMS5003;59889;50.700;5.440;2022-12-20T06:12:34;9;9;
72023;PMS5003;59889;50.700;5.440;2022-12-20T06:14:59;12;12;
72023;PMS5003;59889;50.700;5.440;2022-12-20T06:17:25;10;10;
72023;PMS5003;59889;50.700;5.440;2022-12-20T06:19:49;12;11;
72023;PMS5003;59889;50.700;5.440;2022-12-20T06:22:15;15;13;
72023;PMS5003;59889;50.700;5.440;2022-12-20T06:24:40;9;9;
72023;PMS5003;59889;50.700;5.440;2022-12-20T06:27:05;13;12;
72023;PMS5003;59889;50.700;5.440;2022-12-20T06:29:30;10;10;
72023;PMS5003;59889;50.700;5.440;2022-12-20T06:31:55;9;9;
72023;PMS5003;59889;50.700;5.440;2022-12-20T06:34:21;11;11;
72023;PMS5003;59889;50.700;5.440;2022-12-20T06:36:45;9;9;
72023;PMS5003;59889;50.700;5.440;2022-12-20T06:39:11;9;9;
72023;PMS5003;59889;50.700;5.440;2022-12-20T06:41:36;9;9;
72023;PMS5003;59889;50.700;5.440;2022-12-20T06:44:01;10;10;
72023;PMS5003;59889;50.700;5.440;2022-12-20T06:46:26;11;10;
72023;PMS5003;59889;50.700;5.440;2022-12-20T06:48:51;10;10;
72023;PMS5003;59889;50.700;5.440;2022-12-20T06:51:16;11;11;
72023;PMS5003;59889;50.700;5.440;2022-12-20T06:53:41;11;11;
72023;PMS5003;59889;50.700;5.440;2022-12-20T06:56:07;10;10;
72023;PMS5003;59889;50.700;5.440;2022-12-20T06:58:32;12;12;
72023;PMS5003;59889;50.700;5.440;2022-12-20T07:00:57;11;10;
72023;PMS5003;59889;50.700;5.440;2022-12-20T07:03:22;11;11;
72023;PMS5003;59889;50.700;5.440;2022-12-20T07:05:49;9;7;
72023;PMS5003;59889;50.700;5.440;2022-12-20T07:08:12;8;8;
72023;PMS5003;59889;50.700;5.440;2022-12-20T07:10:37;12;10;
72023;PMS5003;59889;50.700;5.440;2022-12-20T07:13:02;9;8;
72023;PMS5003;59889;50.700;5.440;2022-12-20T07:15:27;11;11;
72023;PMS5003;59889;50.700;5.440;2022-12-20T07:17:53;10;10;
72023;PMS5003;59889;50.700;5.440;2022-12-20T07:20:18;8;8;
72023;PMS5003;59889;50.700;5.440;2022-12-20T07:22:46;9;9;
72023;PMS5003;59889;50.700;5.440;2022-12-20T07:25:09;9;9;
72023;PMS5003;59889;50.700;5.440;2022-12-20T07:27:34;12;10;
72023;PMS5003;59889;50.700;5.440;2022-12-20T07:29:59;12;12;
72023;PMS5003;59889;50.700;5.440;2022-12-20T07:32:25;9;9;
72023;PMS5003;59889;50.700;5.440;2022-12-20T07:34:50;10;10;
72023;PMS5003;59889;50.700;5.440;2022-12-20T07:37:15;9;9;
72023;PMS5003;59889;50.700;5.440;2022-12-20T07:39:40;10;10;
72023;PMS5003;59889;50.700;5.440;2022-12-20T07:42:05;11;11;
72023;PMS5003;59889;50.700;5.440;2022-12-20T07:44:30;9;9;
72023;PMS5003;59889;50.700;5.440;2022-12-20T07:46:56;9;8;
72023;PMS5003;59889;50.700;5.440;2022-12-20T07:49:21;10;10;
72023;PMS5003;59889;50.700;5.440;2022-12-20T07:51:47;11;10;
72023;PMS5003;59889;50.700;5.440;2022-12-20T07:54:12;11;11;
72023;PMS5003;59889;50.700;5.440;2022-12-20T07:56:37;11;10;
72023;PMS5003;59889;50.700;5.440;2022-12-20T07:59:02;10;10;
72023;PMS5003;59889;50.700;5.440;2022-12-20T08:01:27;11;10;
72023;PMS5003;59889;50.700;5.440;2022-12-20T08:03:52;9;9;
72023;PMS5003;59889;50.700;5.440;2022-12-20T08:06:17;10;10;
72023;PMS5003;59889;50.700;5.440;2022-12-20T08:08:43;10;10;
72023;PMS5003;59889;50.700;5.440;2022-12-20T08:11:07;10;10;
72023;PMS5003;59889;50.700;5.440;2022-12-20T08:13:32;10;10;
72023;PMS5003;59889;50.700;5.440;2022-12-20T08:15:58;10;10;
72023;PMS5003;59889;50.700;5.440;2022-12-20T08:18:23;12;10;
72023;PMS5003;59889;50.700;5.440;2022-12-20T08:20:48;10;9;
72023;PMS5003;59889;50.700;5.440;2022-12-20T08:23:13;11;10;
72023;PMS5003;59889;50.700;5.440;2022-12-20T08:25:38;11;11;
72023;PMS5003;59889;50.700;5.440;2022-12-20T08:28:04;12;11;
72023;PMS5003;59889;50.700;5.440;2022-12-20T08:30:29;10;9;
72023;PMS5003;59889;50.700;5.440;2022-12-20T08:32:54;11;10;
72023;PMS5003;59889;50.700;5.440;2022-12-20T08:35:19;12;11;
72023;PMS5003;59889;50.700;5.440;2022-12-20T08:37:44;10;9;
72023;PMS5003;59889;50.700;5.440;2022-12-20T08:40:10;12;11;
72023;PMS5003;59889;50.700;5.440;2022-12-20T08:42:35;12;12;
72023;PMS5003;59889;50.700;5.440;2022-12-20T08:45:00;12;11;
72023;PMS5003;59889;50.700;5.440;2022-12-20T08:47:27;11;11;
72023;PMS5003;59889;50.700;5.440;2022-12-20T08:49:51;12;12;
72023;PMS5003;59889;50.700;5.440;2022-12-20T08:52:17;12;11;
72023;PMS5003;59889;50.700;5.440;2022-12-20T08:54:42;13;13;
72023;PMS5003;59889;50.700;5.440;2022-12-20T08:57:08;14;13;
72023;PMS5003;59889;50.700;5.440;2022-12-20T08:59:32;11;11;
72023;PMS5003;59889;50.700;5.440;2022-12-20T09:01:57;12;11;
72023;PMS5003;59889;50.700;5.440;2022-12-20T09:04:22;11;11;
72023;PMS5003;59889;50.700;5.440;2022-12-20T09:06:47;13;13;
72023;PMS5003;59889;50.700;5.440;2022-12-20T09:09:12;13;12;
72023;PMS5003;59889;50.700;5.440;2022-12-20T09:11:38;15;15;
72023;PMS5003;59889;50.700;5.440;2022-12-20T09:14:03;14;12;
72023;PMS5003;59889;50.700;5.440;2022-12-20T09:16:29;13;13;
72023;PMS5003;59889;50.700;5.440;2022-12-20T09:18:54;13;12;
72023;PMS5003;59889;50.700;5.440;2022-12-20T09:21:19;11;11;
72023;PMS5003;59889;50.700;5.440;2022-12-20T09:23:44;13;11;
72023;PMS5003;59889;50.700;5.440;2022-12-20T09:26:12;13;11;
72023;PMS5003;59889;50.700;5.440;2022-12-20T09:28:35;12;11;
72023;PMS5003;59889;50.700;5.440;2022-12-20T09:31:00;12;12;
72023;PMS5003;59889;50.700;5.440;2022-12-20T09:33:25;12;12;
72023;PMS5003;59889;50.700;5.440;2022-12-20T09:35:50;12;12;
72023;PMS5003;59889;50.700;5.440;2022-12-20T09:38:15;11;11;
72023;PMS5003;59889;50.700;5.440;2022-12-20T09:40:43;12;12;
72023;PMS5003;59889;50.700;5.440;2022-12-20T09:43:07;11;10;
72023;PMS5003;59889;50.700;5.440;2022-12-20T09:45:31;11;11;
72023;PMS5003;59889;50.700;5.440;2022-12-20T09:47:56;12;12;
72023;PMS5003;59889;50.700;5.440;2022-12-20T09:50:25;12;11;
72023;PMS5003;59889;50.700;5.440;2022-12-20T09:52:48;11;11;
72023;PMS5003;59889;50.700;5.440;2022-12-20T09:55:14;12;11;
72023;PMS5003;59889;50.700;5.440;2022-12-20T09:57:40;12;12;
72023;PMS5003;59889;50.700;5.440;2022-12-20T10:00:02;12;12;
72023;PMS5003;59889;50.700;5.440;2022-12-20T10:02:28;9;9;
72023;PMS5003;59889;50.700;5.440;2022-12-20T10:04:52;11;11;
72023;PMS5003;59889;50.700;5.440;2022-12-20T10:07:21;14;11;
72023;PMS5003;59889;50.700;5.440;2022-12-20T10:09:46;10;10;
72023;PMS5003;59889;50.700;5.440;2022-12-20T10:12:08;10;10;
72023;PMS5003;59889;50.700;5.440;2022-12-20T10:14:38;10;10;
72023;PMS5003;59889;50.700;5.440;2022-12-20T10:16:59;12;12;
72023;PMS5003;59889;50.700;5.440;2022-12-20T10:19:26;11;10;
72023;PMS5003;59889;50.700;5.440;2022-12-20T10:21:50;13;12;
72023;PMS5003;59889;50.700;5.440;2022-12-20T10:24:14;10;10;
72023;PMS5003;59889;50.700;5.440;2022-12-20T10:26:38;11;11;
72023;PMS5003;59889;50.700;5.440;2022-12-20T10:29:03;10;10;
72023;PMS5003;59889;50.700;5.440;2022-12-20T10:31:28;12;11;
72023;PMS5003;59889;50.700;5.440;2022-12-20T10:33:53;11;10;
72023;PMS5003;59889;50.700;5.440;2022-12-20T10:36:20;11;10;
72023;PMS5003;59889;50.700;5.440;2022-12-20T10:38:44;11;10;
72023;PMS5003;59889;50.700;5.440;2022-12-20T10:41:10;9;9;
72023;PMS5003;59889;50.700;5.440;2022-12-20T10:43:37;13;11;
72023;PMS5003;59889;50.700;5.440;2022-12-20T10:46:00;12;12;
72023;PMS5003;59889;50.700;5.440;2022-12-20T10:48:27;11;10;
72023;PMS5003;59889;50.700;5.440;2022-12-20T10:50:54;9;9;
72023;PMS5003;59889;50.700;5.440;2022-12-20T10:53:19;11;11;
72023;PMS5003;59889;50.700;5.440;2022-12-20T10:55:40;9;9;
72023;PMS5003;59889;50.700;5.440;2022-12-20T10:58:09;12;11;
72023;PMS5003;59889;50.700;5.440;2022-12-20T11:00:31;9;8;
72023;PMS5003;59889;50.700;5.440;2022-12-20T11:03:01;10;9;
72023;PMS5003;59889;50.700;5.440;2022-12-20T11:05:22;8;8;
72023;PMS5003;59889;50.700;5.440;2022-12-20T11:07:51;9;9;
72023;PMS5003;59889;50.700;5.440;2022-12-20T11:10:17;9;9;
72023;PMS5003;59889;50.700;5.440;2022-12-20T11:12:36;11;11;
72023;PMS5003;59889;50.700;5.440;2022-12-20T11:15:07;9;8;
72023;PMS5003;59889;50.700;5.440;2022-12-20T11:17:27;8;8;
72023;PMS5003;59889;50.700;5.440;2022-12-20T11:19:58;9;8;
72023;PMS5003;59889;50.700;5.440;2022-12-20T11:22:22;10;9;
72023;PMS5003;59889;50.700;5.440;2022-12-20T11:24:44;9;9;
72023;PMS5003;59889;50.700;5.440;2022-12-20T11:27:11;10;9;
72023;PMS5003;59889;50.700;5.440;2022-12-20T11:29:43;9;9;
72023;PMS5003;59889;50.700;5.440;2022-12-20T11:31:59;9;8;
72023;PMS5003;59889;50.700;5.440;2022-12-20T11:34:26;9;8;
72023;PMS5003;59889;50.700;5.440;2022-12-20T11:36:53;8;8;
72023;PMS5003;59889;50.700;5.440;2022-12-20T11:39:14;9;9;
72023;PMS5003;59889;50.700;5.440;2022-12-20T11:41:39;9;8;
72023;PMS5003;59889;50.700;5.440;2022-12-20T11:44:05;8;8;
72023;PMS5003;59889;50.700;5.440;2022-12-20T11:46:31;8;8;
72023;PMS5003;59889;50.700;5.440;2022-12-20T11:48:58;8;7;
72023;PMS5003;59889;50.700;5.440;2022-12-20T11:51:20;9;9;
72023;PMS5003;59889;50.700;5.440;2022-12-20T11:53:44;10;9;
72023;PMS5003;59889;50.700;5.440;2022-12-20T11:56:08;10;9;
72023;PMS5003;59889;50.700;5.440;2022-12-20T11:58:36;10;10;
72023;PMS5003;59889;50.700;5.440;2022-12-20T12:00:59;8;8;
72023;PMS5003;59889;50.700;5.440;2022-12-20T12:03:26;8;7;
72023;PMS5003;59889;50.700;5.440;2022-12-20T12:05:50;7;7;
72023;PMS5003;59889;50.700;5.440;2022-12-20T12:08:15;8;8;
72023;PMS5003;59889;50.700;5.440;2022-12-20T12:10:39;8;8;
72023;PMS5003;59889;50.700;5.440;2022-12-20T12:13:05;8;8;
72023;PMS5003;59889;50.700;5.440;2022-12-20T12:15:30;7;7;
72023;PMS5003;59889;50.700;5.440;2022-12-20T12:17:56;7;7;
72023;PMS5003;59889;50.700;5.440;2022-12-20T12:20:22;8;8;
72023;PMS5003;59889;50.700;5.440;2022-12-20T12:22:44;8;8;
72023;PMS5003;59889;50.700;5.440;2022-12-20T12:25:10;8;8;
72023;PMS5003;59889;50.700;5.440;2022-12-20T12:27:34;9;8;
72023;PMS5003;59889;50.700;5.440;2022-12-20T12:30:00;9;8;
72023;PMS5003;59889;50.700;5.440;2022-12-20T12:32:26;8;8;
72023;PMS5003;59889;50.700;5.440;2022-12-20T12:34:53;9;9;
72023;PMS5003;59889;50.700;5.440;2022-12-20T12:37:20;6;6;
72023;PMS5003;59889;50.700;5.440;2022-12-20T12:42:09;9;8;
72023;PMS5003;59889;50.700;5.440;2022-12-20T12:44:32;6;6;
72023;PMS5003;59889;50.700;5.440;2022-12-20T12:46:57;7;7;
72023;PMS5003;59889;50.700;5.440;2022-12-20T12:49:21;8;7;
72023;PMS5003;59889;50.700;5.440;2022-12-20T12:51:48;7;6;
72023;PMS5003;59889;50.700;5.440;2022-12-20T12:54:15;7;7;
72023;PMS5003;59889;50.700;5.440;2022-12-20T12:56:37;6;5;
72023;PMS5003;59889;50.700;5.440;2022-12-20T12:59:07;9;9;
72023;PMS5003;59889;50.700;5.440;2022-12-20T13:08:46;6;6;
72023;PMS5003;59889;50.700;5.440;2022-12-20T13:11:11;7;6;
72023;PMS5003;59889;50.700;5.440;2022-12-20T13:13:32;7;7;
72023;PMS5003;59889;50.700;5.440;2022-12-20T13:18:24;8;7;
72023;PMS5003;59889;50.700;5.440;2022-12-20T13:23:13;9;9;
72023;PMS5003;59889;50.700;5.440;2022-12-20T13:25:38;7;7;
72023;PMS5003;59889;50.700;5.440;2022-12-20T13:30:28;7;6;
72023;PMS5003;59889;50.700;5.440;2022-12-20T13:32:57;8;7;
72023;PMS5003;59889;50.700;5.440;2022-12-20T13:35:29;8;8;
72023;PMS5003;59889;50.700;5.440;2022-12-20T13:40:13;6;6;
72023;PMS5003;59889;50.700;5.440;2022-12-20T13:42:36;6;6;
72023;PMS5003;59889;50.700;5.440;2022-12-20T13:45:00;8;7;
72023;PMS5003;59889;50.700;5.440;2022-12-20T13:47:27;7;7;
72023;PMS5003;59889;50.700;5.440;2022-12-20T13:49:49;7;6;
72023;PMS5003;59889;50.700;5.440;2022-12-20T13:52:19;8;8;
72023;PMS5003;59889;50.700;5.440;2022-12-20T13:54:40;9;8;
72023;PMS5003;59889;50.700;5.440;2022-12-20T13:57:05;8;7;
72023;PMS5003;59889;50.700;5.440;2022-12-20T13:59:30;7;7;
72023;PMS5003;59889;50.700;5.440;2022-12-20T14:01:56;8;8;
72023;PMS5003;59889;50.700;5.440;2022-12-20T14:04:20;7;7;
72023;PMS5003;59889;50.700;5.440;2022-12-20T14:06:49;8;7;
72023;PMS5003;59889;50.700;5.440;2022-12-20T14:11:35;7;7;
72023;PMS5003;59889;50.700;5.440;2022-12-20T14:14:01;9;8;
72023;PMS5003;59889;50.700;5.440;2022-12-20T14:16:26;7;7;
72023;PMS5003;59889;50.700;5.440;2022-12-20T14:21:16;7;7;
72023;PMS5003;59889;50.700;5.440;2022-12-20T14:23:42;8;8;
72023;PMS5003;59889;50.700;5.440;2022-12-20T14:26:07;7;7;
72023;PMS5003;59889;50.700;5.440;2022-12-20T14:28:36;6;6;
72023;PMS5003;59889;50.700;5.440;2022-12-20T14:30:57;5;5;
72023;PMS5003;59889;50.700;5.440;2022-12-20T14:33:24;6;6;
72023;PMS5003;59889;50.700;5.440;2022-12-20T14:35:46;6;6;
72023;PMS5003;59889;50.700;5.440;2022-12-20T14:40:39;7;7;
72023;PMS5003;59889;50.700;5.440;2022-12-20T14:45:27;7;7;
72023;PMS5003;59889;50.700;5.440;2022-12-20T14:47:54;8;6;
72023;PMS5003;59889;50.700;5.440;2022-12-20T14:50:18;8;7;
72023;PMS5003;59889;50.700;5.440;2022-12-20T14:52:42;9;6;
72023;PMS5003;59889;50.700;5.440;2022-12-20T14:55:10;8;7;
72023;PMS5003;59889;50.700;5.440;2022-12-20T14:57:37;6;6;
72023;PMS5003;59889;50.700;5.440;2022-12-20T15:00:00;6;5;
72023;PMS5003;59889;50.700;5.440;2022-12-20T15:04:48;6;6;
72023;PMS5003;59889;50.700;5.440;2022-12-20T15:09:38;7;7;
72023;PMS5003;59889;50.700;5.440;2022-12-20T15:12:03;6;6;
72023;PMS5003;59889;50.700;5.440;2022-12-20T15:14:31;5;5;
72023;PMS5003;59889;50.700;5.440;2022-12-20T15:16:53;6;5;
72023;PMS5003;59889;50.700;5.440;2022-12-20T15:19:18;8;8;
72023;PMS5003;59889;50.700;5.440;2022-12-20T15:21:43;6;6;
72023;PMS5003;59889;50.700;5.440;2022-12-20T15:24:09;6;6;
72023;PMS5003;59889;50.700;5.440;2022-12-20T15:26:34;7;6;
72023;PMS5003;59889;50.700;5.440;2022-12-20T15:28:59;6;6;
72023;PMS5003;59889;50.700;5.440;2022-12-20T15:31:24;5;5;
72023;PMS5003;59889;50.700;5.440;2022-12-20T15:33:49;8;7;
72023;PMS5003;59889;50.700;5.440;2022-12-20T15:36:14;7;6;
72023;PMS5003;59889;50.700;5.440;2022-12-20T15:38:39;6;6;
72023;PMS5003;59889;50.700;5.440;2022-12-20T15:41:04;8;7;
72023;PMS5003;59889;50.700;5.440;2022-12-20T15:43:31;5;5;
72023;PMS5003;59889;50.700;5.440;2022-12-20T15:45:54;8;8;
72023;PMS5003;59889;50.700;5.440;2022-12-20T15:48:20;6;6;
72023;PMS5003;59889;50.700;5.440;2022-12-20T15:50:48;7;7;
72023;PMS5003;59889;50.700;5.440;2022-12-20T15:53:12;8;7;
72023;PMS5003;59889;50.700;5.440;2022-12-20T15:55:35;6;6;
72023;PMS5003;59889;50.700;5.440;2022-12-20T15:58:00;6;6;
72023;PMS5003;59889;50.700;5.440;2022-12-20T16:00:25;6;6;
72023;PMS5003;59889;50.700;5.440;2022-12-20T16:02:50;7;7;
72023;PMS5003;59889;50.700;5.440;2022-12-20T16:05:15;6;5;
72023;PMS5003;59889;50.700;5.440;2022-12-20T16:07:40;8;8;
72023;PMS5003;59889;50.700;5.440;2022-12-20T16:10:06;7;6;
72023;PMS5003;59889;50.700;5.440;2022-12-20T16:12:31;8;8;
72023;PMS5003;59889;50.700;5.440;2022-12-20T16:14:56;5;5;
72023;PMS5003;59889;50.700;5.440;2022-12-20T16:17:21;6;6;
72023;PMS5003;59889;50.700;5.440;2022-12-20T16:19:46;5;5;
72023;PMS5003;59889;50.700;5.440;2022-12-20T16:22:13;7;5;
72023;PMS5003;59889;50.700;5.440;2022-12-20T16:24:36;6;5;
72023;PMS5003;59889;50.700;5.440;2022-12-20T16:27:01;7;7;
72023;PMS5003;59889;50.700;5.440;2022-12-20T16:29:26;7;6;
72023;PMS5003;59889;50.700;5.440;2022-12-20T16:31:51;6;6;
72023;PMS5003;59889;50.700;5.440;2022-12-20T16:34:17;5;5;
72023;PMS5003;59889;50.700;5.440;2022-12-20T16:36:42;6;5;
72023;PMS5003;59889;50.700;5.440;2022-12-20T16:39:07;7;5;
72023;PMS5003;59889;50.700;5.440;2022-12-20T16:41:32;8;8;
72023;PMS5003;59889;50.700;5.440;2022-12-20T16:43:57;7;6;
72023;PMS5003;59889;50.700;5.440;2022-12-20T16:46:22;7;7;
72023;PMS5003;59889;50.700;5.440;2022-12-20T16:48:47;6;6;
72023;PMS5003;59889;50.700;5.440;2022-12-20T16:51:21;5;4;
72023;PMS5003;59889;50.700;5.440;2022-12-20T16:53:37;4;4;
72023;PMS5003;59889;50.700;5.440;2022-12-20T16:56:02;5;5;